Reydon, Oklahoma
Current Conditions -  °F | °C
As of 6:55 AM on Friday 19 Dec 2014 (Local Time) from KHHF Reporting Station
Haze Haze  
Wind Chill: 38°   Ceiling: 500
Heat Index: 38°   Visibility: 4mi
Dew Point: 38°   Wind: 3mph
Humidity: 98%   Direction: 110°ESE
Pressure: 30.16"   Gusts: NA
Location:  35.65°N, 99.92°W
Report Text: KHHF 191255Z AUTO 11003KT 4SM BR OVC005 04/03 A3016 RMK AO2 T00360033
Loading
Personal Weather Stations






























Interactive Weather Map New forecast layout! Learn more

10-Day Weather Forecast

Advertisements
Track Severe Weather on mobile